Time;durP1;ratioP1;P1;durP2;ratioP2;P2;SDS_P1;SDS_P2;PMS_P1;PMS_P2;Temp;Humidity;BMP_temperature;BMP_pressure;BME280_temperature;BME280_humidity;BME280_pressure;Samples;Min_cycle;Max_cycle;Signal;HPM_P1;HPM_P2
2022/03/05 00:02:18;;;;;;;10.68;4.90;;;0.80;99.90;;;;;;5075176;28;20653;-71
2022/03/05 00:04:44;;;;;;;10.75;4.95;;;0.80;99.90;;;;;;5070972;28;20246;-70
2022/03/05 00:07:10;;;;;;;12.48;4.90;;;0.70;99.90;;;;;;5071185;28;20161;-70
2022/03/05 00:09:36;;;;;;;8.68;5.18;;;0.70;99.90;;;;;;5068753;28;20243;-71
2022/03/05 00:12:02;;;;;;;16.23;6.00;;;0.70;99.90;;;;;;5071051;28;20164;-71
2022/03/05 00:14:28;;;;;;;14.82;5.65;;;0.70;99.90;;;;;;5069575;28;20184;-71
2022/03/05 00:16:54;;;;;;;10.35;5.35;;;0.70;99.90;;;;;;5071058;28;20549;-71
2022/03/05 00:19:21;;;;;;;11.27;5.68;;;0.70;99.90;;;;;;5070745;28;20223;-71
2022/03/05 00:21:47;;;;;;;12.55;4.72;;;0.60;99.90;;;;;;5070505;28;20252;-71
2022/03/05 00:24:13;;;;;;;10.82;4.60;;;0.60;99.90;;;;;;5070864;28;20641;-71
2022/03/05 00:26:39;;;;;;;11.68;5.05;;;0.60;99.90;;;;;;5070919;28;20248;-71
2022/03/05 00:29:05;;;;;;;9.00;5.30;;;0.60;99.90;;;;;;5070667;28;20200;-71
2022/03/05 00:31:31;;;;;;;12.68;4.93;;;0.60;99.90;;;;;;5068880;28;20165;-71
2022/03/05 00:33:56;;;;;;;12.43;6.18;;;0.60;99.90;;;;;;5069461;28;20192;-71
2022/03/05 00:36:22;;;;;;;39.47;12.88;;;0.60;99.90;;;;;;5070571;28;20157;-71
2022/03/05 00:38:48;;;;;;;25.70;12.05;;;0.50;99.90;;;;;;5069211;28;20208;-71
2022/03/05 00:41:14;;;;;;;17.48;8.25;;;0.60;99.90;;;;;;5068547;28;20202;-71
2022/03/05 00:43:40;;;;;;;26.02;12.57;;;0.60;99.90;;;;;;5070534;28;20183;-71
2022/03/05 00:46:06;;;;;;;22.20;10.48;;;0.60;99.90;;;;;;5070526;28;20161;-71
2022/03/05 00:48:32;;;;;;;18.48;9.43;;;0.60;99.90;;;;;;5070262;28;20215;-71
2022/03/05 00:50:58;;;;;;;13.18;7.07;;;0.60;99.90;;;;;;5068953;28;20165;-71
2022/03/05 00:53:24;;;;;;;13.48;6.85;;;0.60;99.90;;;;;;5070002;28;20176;-72
2022/03/05 00:55:49;;;;;;;12.60;6.32;;;0.60;99.90;;;;;;5070288;28;20171;-71
2022/03/05 00:58:15;;;;;;;9.70;5.85;;;0.60;99.90;;;;;;5068903;28;20171;-71
2022/03/05 01:00:42;;;;;;;11.30;7.10;;;0.60;99.90;;;;;;5070079;28;20213;-71
2022/03/05 01:03:08;;;;;;;12.82;6.85;;;0.60;99.90;;;;;;5069362;28;20219;-71
2022/03/05 01:05:33;;;;;;;11.02;6.20;;;0.60;99.90;;;;;;5068775;28;20165;-71
2022/03/05 01:07:59;;;;;;;14.38;6.50;;;0.60;99.90;;;;;;5069815;28;20229;-71
2022/03/05 01:10:25;;;;;;;11.55;5.25;;;0.60;99.90;;;;;;5068546;28;20212;-70
2022/03/05 01:12:51;;;;;;;12.95;6.20;;;0.60;99.90;;;;;;5069373;28;20160;-70
2022/03/05 01:15:18;;;;;;;12.77;5.72;;;0.60;99.90;;;;;;5069995;28;20209;-70
2022/03/05 01:17:44;;;;;;;10.93;6.07;;;0.60;99.90;;;;;;5069847;28;20167;-70
2022/03/05 01:20:11;;;;;;;11.10;5.90;;;0.60;99.90;;;;;;5069704;28;20220;-70
2022/03/05 01:22:37;;;;;;;11.35;5.43;;;0.60;99.90;;;;;;5069804;28;20195;-70
2022/03/05 01:25:03;;;;;;;10.95;5.32;;;0.60;99.90;;;;;;5069750;28;20154;-70
2022/03/05 01:27:29;;;;;;;12.52;5.68;;;0.70;99.90;;;;;;5069758;28;20181;-70
2022/03/05 01:29:55;;;;;;;10.23;5.43;;;0.60;99.90;;;;;;5069684;28;20192;-71
2022/03/05 01:32:21;;;;;;;8.88;5.13;;;0.60;99.90;;;;;;5068269;28;20196;-71
2022/03/05 01:34:47;;;;;;;7.90;4.05;;;0.60;99.90;;;;;;5069708;28;20157;-71
2022/03/05 01:37:13;;;;;;;11.85;5.10;;;0.60;99.90;;;;;;5069742;28;20184;-71
2022/03/05 01:39:41;;;;;;;10.68;5.13;;;0.50;99.90;;;;;;5069494;28;20169;-71
2022/03/05 01:42:08;;;;;;;11.25;5.15;;;0.50;99.90;;;;;;5069458;28;20249;-71
2022/03/05 01:44:34;;;;;;;7.07;4.72;;;0.40;99.90;;;;;;5069570;28;20176;-71
2022/03/05 01:47:04;;;;;;;11.40;4.75;;;0.40;99.90;;;;;;5069553;28;20153;-71
2022/03/05 01:49:31;;;;;;;10.45;5.85;;;0.40;99.90;;;;;;5069294;28;20189;-71
2022/03/05 01:51:57;;;;;;;10.45;4.93;;;0.30;99.90;;;;;;5069394;28;20188;-71
2022/03/05 01:54:25;;;;;;;6.57;4.18;;;0.30;99.90;;;;;;5069437;28;20176;-71
2022/03/05 01:56:51;;;;;;;12.43;5.03;;;0.30;99.90;;;;;;5068023;28;20181;-71
2022/03/05 01:59:17;;;;;;;11.73;4.90;;;0.30;99.90;;;;;;5068202;28;20195;-71
2022/03/05 02:01:43;;;;;;;8.13;4.53;;;0.50;99.90;;;;;;5069322;28;20282;-71
2022/03/05 02:04:09;;;;;;;10.02;4.55;;;0.70;99.90;;;;;;5069005;28;20216;-71
2022/03/05 02:06:35;;;;;;;7.40;3.83;;;1.00;99.90;;;;;;5068029;28;20202;-71
2022/03/05 02:09:03;;;;;;;7.32;4.15;;;1.10;99.90;;;;;;5069133;28;20579;-71
2022/03/05 02:11:29;;;;;;;8.50;4.28;;;1.20;99.90;;;;;;5067836;28;20244;-72
2022/03/05 02:13:56;;;;;;;17.67;5.05;;;1.30;99.90;;;;;;5069099;28;20161;-71
2022/03/05 02:16:23;;;;;;;8.85;3.95;;;1.30;99.90;;;;;;5069142;28;20153;-71
2022/03/05 02:18:51;;;;;;;8.43;4.65;;;1.30;99.90;;;;;;5067306;28;20177;-72
2022/03/05 02:21:17;;;;;;;9.18;4.50;;;1.20;99.90;;;;;;5068960;28;20165;-71
2022/03/05 02:23:44;;;;;;;9.02;4.43;;;1.20;99.90;;;;;;5069029;28;20275;-71
2022/03/05 02:26:11;;;;;;;9.05;4.03;;;1.20;99.90;;;;;;5068968;28;20164;-71
2022/03/05 02:28:38;;;;;;;7.25;3.13;;;1.20;99.90;;;;;;5068962;28;20395;-71
2022/03/05 02:31:05;;;;;;;10.75;4.40;;;1.20;99.90;;;;;;5069059;28;20172;-71
2022/03/05 02:33:31;;;;;;;7.95;4.00;;;1.20;99.90;;;;;;5068804;28;20191;-70
2022/03/05 02:35:57;;;;;;;6.80;3.38;;;1.20;99.90;;;;;;5067640;28;20193;-72
2022/03/05 02:38:24;;;;;;;8.68;4.20;;;1.10;99.90;;;;;;5068927;28;20242;-72
2022/03/05 02:40:51;;;;;;;8.18;3.33;;;1.10;99.90;;;;;;5068863;28;20159;-71
2022/03/05 02:43:18;;;;;;;6.25;2.90;;;1.10;99.90;;;;;;5067576;28;20219;-71
2022/03/05 02:45:45;;;;;;;6.50;3.78;;;1.10;99.90;;;;;;5068948;28;20168;-72
2022/03/05 02:48:13;;;;;;;7.28;3.25;;;1.10;99.90;;;;;;5067452;28;20176;-71
2022/03/05 02:50:41;;;;;;;10.48;4.28;;;1.20;99.90;;;;;;5068703;28;20161;-71
2022/03/05 02:53:07;;;;;;;11.20;4.65;;;1.00;99.90;;;;;;5068672;28;20189;-72
2022/03/05 02:55:34;;;;;;;11.15;4.35;;;0.90;99.90;;;;;;5068794;28;20179;-72
2022/03/05 02:58:01;;;;;;;7.72;4.43;;;0.90;99.90;;;;;;5067399;28;20175;-71
2022/03/05 03:00:27;;;;;;;10.05;4.72;;;0.80;99.90;;;;;;5067367;28;20286;-71
2022/03/05 03:02:53;;;;;;;9.38;4.22;;;0.70;99.90;;;;;;5068352;28;20199;-71
2022/03/05 03:05:19;;;;;;;9.23;4.78;;;0.70;99.90;;;;;;5068689;28;20161;-71
2022/03/05 03:07:46;;;;;;;7.75;4.60;;;0.70;99.90;;;;;;5068752;28;20201;-72
2022/03/05 03:10:13;;;;;;;8.23;5.07;;;0.70;99.90;;;;;;5068539;28;20195;-71
2022/03/05 03:12:39;;;;;;;7.78;3.88;;;0.70;99.90;;;;;;5068392;28;20356;-72
2022/03/05 03:15:08;;;;;;;6.50;3.53;;;0.70;99.90;;;;;;5068639;28;20157;-72
2022/03/05 03:17:48;;;;;;;10.43;4.28;;;0.70;99.90;;;;;;5068533;28;20160;-71
2022/03/05 03:20:17;;;;;;;5.85;3.80;;;0.70;99.90;;;;;;5068630;28;20163;-72
2022/03/05 03:22:44;;;;;;;6.80;4.05;;;0.80;99.90;;;;;;5068512;28;20193;-72
2022/03/05 03:25:10;;;;;;;8.25;4.40;;;0.80;99.90;;;;;;5067080;28;20164;-70
2022/03/05 03:27:37;;;;;;;6.60;3.58;;;0.80;99.90;;;;;;5068498;28;20192;-71
2022/03/05 03:30:05;;;;;;;5.35;3.50;;;0.80;99.90;;;;;;5068708;28;20188;-71
2022/03/05 03:32:31;;;;;;;5.97;3.25;;;0.70;99.90;;;;;;5072098;28;20200;-72
2022/03/05 03:34:57;;;;;;;6.80;3.70;;;0.70;99.90;;;;;;5070762;28;20177;-72
2022/03/05 03:37:28;;;;;;;8.25;4.57;;;0.60;99.90;;;;;;5071961;28;20688;-71
2022/03/05 03:39:56;;;;;;;8.07;3.53;;;0.60;99.90;;;;;;5071911;28;20153;-72
2022/03/05 03:42:23;;;;;;;8.90;4.15;;;0.50;99.90;;;;;;5071812;28;20210;-72
2022/03/05 03:44:48;;;;;;;7.15;3.90;;;0.50;99.90;;;;;;5071832;28;20163;-71
2022/03/05 03:47:15;;;;;;;8.63;4.20;;;0.50;99.90;;;;;;5071861;28;20157;-70
2022/03/05 03:49:41;;;;;;;10.27;4.15;;;0.60;99.90;;;;;;5071787;28;20189;-71
2022/03/05 03:52:07;;;;;;;9.23;4.25;;;0.60;99.90;;;;;;5071657;28;20215;-70
2022/03/05 03:54:32;;;;;;;8.77;3.85;;;0.60;99.90;;;;;;5071687;28;20157;-70
2022/03/05 03:56:58;;;;;;;11.43;4.60;;;0.50;99.90;;;;;;5070317;28;20222;-70
2022/03/05 03:59:24;;;;;;;6.50;3.58;;;0.50;99.90;;;;;;5071651;28;20164;-70
2022/03/05 04:01:50;;;;;;;5.78;3.80;;;0.50;99.90;;;;;;5071570;28;20203;-70
2022/03/05 04:04:16;;;;;;;5.30;3.42;;;0.50;99.90;;;;;;5071301;28;20705;-70
2022/03/05 04:09:27;;;;;;;13.68;4.20;;;0.50;99.90;;;;;;5071326;28;20200;-70
2022/03/05 04:11:53;;;;;;;7.28;4.10;;;0.50;99.90;;;;;;5071330;28;20185;-70
2022/03/05 04:14:18;;;;;;;9.55;4.70;;;0.50;99.90;;;;;;5069927;28;20157;-70
2022/03/05 04:16:44;;;;;;;7.93;3.97;;;0.50;99.90;;;;;;5069901;28;20165;-71
2022/03/05 04:19:10;;;;;;;8.18;4.43;;;0.50;99.90;;;;;;5071249;28;20168;-71
2022/03/05 04:21:36;;;;;;;9.38;4.22;;;0.50;99.90;;;;;;5069070;28;20179;-71
2022/03/05 04:24:02;;;;;;;6.55;3.15;;;0.50;99.90;;;;;;5070936;28;20161;-71
2022/03/05 04:26:28;;;;;;;7.97;3.58;;;0.40;99.90;;;;;;5071074;28;20172;-71
2022/03/05 04:28:54;;;;;;;8.77;4.15;;;0.30;99.90;;;;;;5069711;28;20188;-70
2022/03/05 04:31:20;;;;;;;8.50;4.40;;;0.30;99.90;;;;;;5070894;28;20161;-71
2022/03/05 04:33:45;;;;;;;7.82;4.13;;;0.30;99.90;;;;;;5069558;28;20189;-70
2022/03/05 04:36:12;;;;;;;6.47;3.72;;;0.30;99.90;;;;;;5069555;28;20156;-70
2022/03/05 04:38:38;;;;;;;8.02;3.95;;;0.40;99.90;;;;;;5070752;28;20524;-72
2022/03/05 04:41:04;;;;;;;10.35;3.95;;;0.40;99.90;;;;;;5069535;28;20253;-71
2022/03/05 04:43:29;;;;;;;8.73;4.07;;;0.30;99.90;;;;;;5068790;28;20196;-70
2022/03/05 04:45:55;;;;;;;6.53;4.10;;;0.30;99.90;;;;;;5070793;28;20187;-70
2022/03/05 04:48:21;;;;;;;11.60;4.30;;;0.20;99.90;;;;;;5070598;28;20179;-71
2022/03/05 04:50:48;;;;;;;8.07;4.03;;;0.20;99.90;;;;;;5070610;28;20743;-71
2022/03/05 04:53:15;;;;;;;14.20;5.15;;;0.20;99.90;;;;;;5069255;28;20207;-71
2022/03/05 04:55:42;;;;;;;8.38;4.22;;;0.10;99.90;;;;;;5070485;28;20161;-71
2022/03/05 04:58:09;;;;;;;7.10;3.63;;;0.10;99.90;;;;;;5070595;28;20161;-72
2022/03/05 05:00:36;;;;;;;12.25;4.95;;;0.10;99.90;;;;;;5070508;28;20171;-71
2022/03/05 05:03:01;;;;;;;10.23;4.40;;;0.20;99.90;;;;;;5068763;28;20228;-72
2022/03/05 05:05:27;;;;;;;7.45;3.83;;;0.20;99.90;;;;;;5068941;28;20582;-71
2022/03/05 05:07:53;;;;;;;8.15;3.80;;;0.20;99.90;;;;;;5070479;28;20169;-71
2022/03/05 05:10:19;;;;;;;6.75;4.25;;;0.10;99.90;;;;;;5070346;28;20189;-71
2022/03/05 05:12:45;;;;;;;6.97;3.50;;;0.10;99.90;;;;;;5070265;28;20189;-71
2022/03/05 05:15:11;;;;;;;7.95;3.67;;;0.20;99.90;;;;;;5070198;28;20153;-71
2022/03/05 05:17:38;;;;;;;8.50;4.13;;;0.20;99.90;;;;;;5070193;28;20180;-71
2022/03/05 05:20:06;;;;;;;5.82;3.80;;;0.10;99.90;;;;;;5068813;28;20188;-71
2022/03/05 05:22:32;;;;;;;8.98;4.03;;;0.10;99.90;;;;;;5068681;28;20222;-71
2022/03/05 05:24:59;;;;;;;7.15;3.88;;;0.00;99.90;;;;;;5070032;28;20212;-71
2022/03/05 05:27:26;;;;;;;6.57;4.25;;;0.00;99.90;;;;;;5068654;28;20172;-71
2022/03/05 05:29:52;;;;;;;8.30;4.45;;;0.00;99.90;;;;;;5069830;28;20532;-71
2022/03/05 05:32:19;;;;;;;8.65;4.75;;;0.00;99.90;;;;;;5069817;28;20207;-71
2022/03/05 05:34:46;;;;;;;6.95;4.22;;;0.00;99.90;;;;;;5069846;28;20182;-71
2022/03/05 05:37:12;;;;;;;14.25;4.30;;;0.00;99.90;;;;;;5069853;28;20163;-71
2022/03/05 05:39:37;;;;;;;17.90;5.22;;;0.10;99.90;;;;;;5069727;28;20176;-72
2022/03/05 05:42:04;;;;;;;13.95;6.40;;;0.20;99.90;;;;;;5069679;28;20188;-71
2022/03/05 05:44:30;;;;;;;9.88;5.38;;;0.40;99.90;;;;;;5069706;28;20160;-71
2022/03/05 05:46:56;;;;;;;10.68;5.65;;;0.40;99.90;;;;;;5069684;28;20165;-71
2022/03/05 05:49:22;;;;;;;15.52;5.63;;;0.40;99.90;;;;;;5069439;28;20248;-71
2022/03/05 05:51:48;;;;;;;16.65;6.35;;;0.40;99.90;;;;;;5069487;28;20189;-73
2022/03/05 05:54:14;;;;;;;10.27;4.93;;;0.40;99.90;;;;;;5068766;28;20157;-72
2022/03/05 05:56:40;;;;;;;11.40;5.35;;;0.40;99.90;;;;;;5068153;28;20169;-71
2022/03/05 05:59:06;;;;;;;11.68;5.35;;;0.40;99.90;;;;;;5068016;28;20185;-71
2022/03/05 06:01:32;;;;;;;9.15;5.57;;;0.50;99.90;;;;;;5069318;28;20153;-72
2022/03/05 06:03:58;;;;;;;9.60;4.93;;;0.60;99.90;;;;;;5069126;28;20589;-73
2022/03/05 06:06:24;;;;;;;7.70;4.45;;;0.50;99.90;;;;;;5069313;28;20160;-72
2022/03/05 06:08:50;;;;;;;7.93;4.63;;;0.60;99.90;;;;;;5069179;28;20191;-71
2022/03/05 06:11:17;;;;;;;13.68;5.60;;;0.50;99.90;;;;;;5067777;28;20173;-71
2022/03/05 06:13:43;;;;;;;7.55;4.88;;;0.50;99.90;;;;;;5069004;28;20192;-71
2022/03/05 06:16:08;;;;;;;10.38;5.07;;;0.60;99.90;;;;;;5067783;28;20257;-72
2022/03/05 06:18:35;;;;;;;9.38;4.15;;;0.60;99.90;;;;;;5067803;28;20165;-70
2022/03/05 06:21:01;;;;;;;11.13;4.75;;;0.70;99.90;;;;;;5069037;28;20157;-70
2022/03/05 06:23:29;;;;;;;9.38;4.40;;;0.80;99.90;;;;;;5067813;28;20267;-71
2022/03/05 06:25:55;;;;;;;7.93;4.57;;;0.90;99.90;;;;;;5069109;28;20155;-70
2022/03/05 06:28:21;;;;;;;8.30;4.32;;;0.90;99.90;;;;;;5068985;28;20221;-71
2022/03/05 06:30:47;;;;;;;14.98;5.30;;;0.90;99.90;;;;;;5068974;28;20157;-71
2022/03/05 06:33:13;;;;;;;10.30;5.47;;;1.00;99.90;;;;;;5068813;28;20202;-70
2022/03/05 06:35:39;;;;;;;10.30;5.53;;;1.20;99.90;;;;;;5068838;28;20161;-70
2022/03/05 06:38:05;;;;;;;11.52;5.05;;;1.30;99.90;;;;;;5067593;28;20175;-70
2022/03/05 06:40:31;;;;;;;11.93;4.82;;;1.50;99.90;;;;;;5068849;28;20522;-70
2022/03/05 06:42:57;;;;;;;8.30;4.60;;;1.60;99.90;;;;;;5068814;28;20203;-70
2022/03/05 06:45:23;;;;;;;10.13;4.70;;;1.80;99.90;;;;;;5068713;28;20200;-71
2022/03/05 06:47:49;;;;;;;8.27;5.03;;;2.10;99.90;;;;;;5068786;28;20199;-70
2022/03/05 06:50:15;;;;;;;9.95;5.47;;;2.30;99.90;;;;;;5068693;28;20188;-70
2022/03/05 06:52:41;;;;;;;8.20;5.35;;;2.50;99.90;;;;;;5068760;28;20193;-71
2022/03/05 06:55:09;;;;;;;10.88;4.97;;;2.50;99.90;;;;;;5068831;28;20175;-71
2022/03/05 06:57:35;;;;;;;9.48;4.30;;;2.50;99.90;;;;;;5067421;28;20157;-71
2022/03/05 07:00:02;;;;;;;9.73;4.65;;;2.40;99.90;;;;;;5067297;28;20236;-70
2022/03/05 07:02:28;;;;;;;10.95;4.22;;;2.40;99.90;;;;;;5067258;28;20200;-71
2022/03/05 07:04:54;;;;;;;10.60;5.43;;;2.60;99.90;;;;;;5068523;28;20231;-71
2022/03/05 07:07:19;;;;;;;8.52;4.93;;;2.80;99.90;;;;;;5072524;28;20176;-71
2022/03/05 07:09:45;;;;;;;10.43;5.45;;;2.90;99.90;;;;;;5072551;28;20200;-71
2022/03/05 07:12:11;;;;;;;11.23;4.70;;;3.10;99.90;;;;;;5071083;28;20204;-72
2022/03/05 07:14:37;;;;;;;8.30;4.85;;;3.00;99.90;;;;;;5072477;28;20164;-71
2022/03/05 07:17:04;;;;;;;12.52;5.68;;;3.20;99.90;;;;;;5071167;28;20194;-71
2022/03/05 07:19:30;;;;;;;11.80;5.32;;;3.40;99.90;;;;;;5072368;28;20169;-72
2022/03/05 07:21:56;;;;;;;10.52;5.93;;;3.60;99.90;;;;;;5080774;28;20264;-71
2022/03/05 07:24:23;;;;;;;8.50;4.43;;;3.70;99.90;;;;;;5091200;28;20170;-70
2022/03/05 07:26:48;;;;;;;10.25;5.10;;;3.60;99.90;;;;;;5092261;28;20539;-71
2022/03/05 07:29:14;;;;;;;8.48;5.10;;;3.70;99.90;;;;;;5092061;28;20245;-71
2022/03/05 07:31:40;;;;;;;12.32;4.50;;;3.90;99.90;;;;;;5090215;28;20194;-71
2022/03/05 07:34:06;;;;;;;9.43;4.97;;;4.00;99.90;;;;;;5090758;28;20175;-71
2022/03/05 07:36:32;;;;;;;10.45;5.35;;;4.10;99.90;;;;;;5091980;28;20178;-70
2022/03/05 07:38:58;;;;;;;8.43;4.65;;;4.10;99.90;;;;;;5091880;28;20180;-71
2022/03/05 07:41:24;;;;;;;7.03;4.60;;;4.30;99.90;;;;;;5091987;28;20180;-70
2022/03/05 07:43:50;;;;;;;7.78;4.10;;;4.50;99.90;;;;;;5091837;28;20594;-70
2022/03/05 07:46:16;;;;;;;9.23;4.65;;;4.80;99.90;;;;;;5092038;28;20160;-71
2022/03/05 07:48:42;;;;;;;6.63;4.85;;;4.60;99.90;;;;;;5091758;28;20168;-71
2022/03/05 07:51:08;;;;;;;10.63;4.60;;;4.80;99.80;;;;;;5091760;28;20167;-71
2022/03/05 07:53:34;;;;;;;10.27;4.95;;;5.20;99.90;;;;;;5091702;28;20199;-70
2022/03/05 07:56:00;;;;;;;7.82;4.15;;;5.30;99.20;;;;;;5091714;28;20179;-70
2022/03/05 07:58:26;;;;;;;10.63;4.97;;;5.50;98.80;;;;;;5091608;28;20176;-72
2022/03/05 08:00:52;;;;;;;10.48;5.13;;;6.00;98.10;;;;;;5091673;28;20518;-70
2022/03/05 08:03:18;;;;;;;7.68;4.50;;;6.00;97.40;;;;;;5091259;28;20304;-70
2022/03/05 08:05:45;;;;;;;8.10;4.55;;;6.20;97.10;;;;;;5091383;28;20179;-71
2022/03/05 08:08:11;;;;;;;9.38;4.22;;;7.00;96.00;;;;;;5091409;28;20191;-71
2022/03/05 08:10:37;;;;;;;9.90;4.50;;;7.20;96.20;;;;;;5090111;28;20259;-71
2022/03/05 08:13:03;;;;;;;8.65;4.13;;;7.30;96.10;;;;;;5091345;28;20164;-71
2022/03/05 08:15:29;;;;;;;8.02;4.40;;;7.40;96.50;;;;;;5091289;28;20157;-71
2022/03/05 08:17:59;;;;;;;8.60;4.38;;;7.60;95.30;;;;;;5090284;28;20196;-71
2022/03/05 08:20:28;;;;;;;8.30;5.18;;;7.20;95.80;;;;;;5090051;28;20168;-70
2022/03/05 08:22:54;;;;;;;7.15;4.68;;;6.50;96.20;;;;;;5091300;28;20641;-71
2022/03/05 08:25:21;;;;;;;6.28;3.75;;;6.10;97.10;;;;;;5091143;28;20156;-70
2022/03/05 08:27:47;;;;;;;9.27;3.97;;;5.90;97.10;;;;;;5090932;28;20219;-71
2022/03/05 08:30:14;;;;;;;6.78;3.95;;;5.60;97.90;;;;;;5089681;28;20192;-71
2022/03/05 08:32:40;;;;;;;7.18;4.45;;;5.70;97.40;;;;;;5091051;28;20231;-71
2022/03/05 08:35:08;;;;;;;5.82;3.50;;;6.70;96.60;;;;;;5089589;28;20166;-71
2022/03/05 08:37:35;;;;;;;7.80;4.00;;;6.70;96.50;;;;;;5090974;28;20242;-71
2022/03/05 08:40:01;;;;;;;9.40;3.92;;;7.40;95.90;;;;;;5090803;28;20219;-71
2022/03/05 08:42:27;;;;;;;8.52;3.85;;;6.90;96.30;;;;;;5089619;28;20217;-71
2022/03/05 08:44:53;;;;;;;7.95;3.67;;;7.20;96.30;;;;;;5090854;28;20216;-71
2022/03/05 08:47:18;;;;;;;5.88;3.53;;;7.80;95.60;;;;;;5090499;28;20191;-71
2022/03/05 08:49:44;;;;;;;7.05;3.63;;;7.50;95.80;;;;;;5090475;28;20214;-71
2022/03/05 08:52:10;;;;;;;6.72;3.72;;;7.50;96.20;;;;;;5090589;28;20528;-71
2022/03/05 08:54:36;;;;;;;9.55;3.65;;;6.80;96.50;;;;;;5088206;28;20187;-70
2022/03/05 08:57:03;;;;;;;8.40;4.60;;;6.50;97.10;;;;;;5077094;28;20214;-71
2022/03/05 08:59:29;;;;;;;8.82;3.90;;;6.40;97.70;;;;;;5069221;28;20184;-71
2022/03/05 09:01:55;;;;;;;6.68;4.18;;;6.40;97.60;;;;;;5081575;28;20211;-71
2022/03/05 09:04:22;;;;;;;8.93;4.43;;;6.20;97.70;;;;;;5090408;28;20222;-72
2022/03/05 09:06:48;;;;;;;7.93;3.80;;;6.20;98.00;;;;;;5085683;28;20199;-72
2022/03/05 09:09:14;;;;;;;6.07;4.00;;;6.20;98.00;;;;;;5082421;28;20187;-72
2022/03/05 09:11:40;;;;;;;9.32;4.75;;;5.90;98.80;;;;;;5084881;28;20172;-71
2022/03/05 09:14:07;;;;;;;4.25;3.00;;;5.70;98.80;;;;;;5081436;28;20157;-71
2022/03/05 09:16:37;;;;;;;8.80;4.00;;;5.70;98.60;;;;;;5085258;28;20167;-72
2022/03/05 09:19:04;;;;;;;8.48;3.78;;;5.60;98.80;;;;;;5084166;28;20164;-72
2022/03/05 09:21:31;;;;;;;8.25;3.67;;;5.60;99.10;;;;;;5082027;28;20169;-72
2022/03/05 09:23:57;;;;;;;10.65;4.68;;;6.00;98.70;;;;;;5087219;28;20188;-71
2022/03/05 09:26:24;;;;;;;4.90;3.38;;;5.60;99.20;;;;;;5085239;28;20163;-72
2022/03/05 09:28:50;;;;;;;8.65;4.15;;;5.60;99.30;;;;;;5088065;28;20194;-72
2022/03/05 09:31:17;;;;;;;7.70;3.72;;;6.30;98.50;;;;;;5090847;28;20160;-72
2022/03/05 09:33:42;;;;;;;11.40;4.53;;;6.70;98.40;;;;;;5073635;28;20204;-72
2022/03/05 09:36:09;;;;;;;7.35;4.35;;;7.20;97.30;;;;;;5069692;28;20245;-73
2022/03/05 09:38:36;;;;;;;6.97;4.15;;;6.30;98.80;;;;;;5079187;28;20192;-72
2022/03/05 09:41:04;;;;;;;9.98;5.22;;;6.40;98.60;;;;;;5070165;28;20173;-72
2022/03/05 09:43:30;;;;;;;7.78;3.72;;;6.80;97.70;;;;;;5069424;28;20185;-72
2022/03/05 09:46:01;;;;;;;8.90;4.50;;;6.80;97.50;;;;;;5085386;28;20167;-72
2022/03/05 09:48:28;;;;;;;8.23;3.80;;;7.20;97.30;;;;;;5089319;28;20167;-72
2022/03/05 09:50:55;;;;;;;8.90;4.82;;;7.20;97.40;;;;;;5089514;28;20152;-73
2022/03/05 09:53:21;;;;;;;11.18;5.40;;;7.50;97.00;;;;;;5086057;28;20251;-73
2022/03/05 09:55:50;;;;;;;6.90;4.53;;;7.80;96.60;;;;;;5087871;28;20648;-73
2022/03/05 09:58:16;;;;;;;8.10;4.95;;;8.20;96.10;;;;;;5089448;28;20164;-72
2022/03/05 10:00:44;;;;;;;7.15;4.50;;;8.30;95.40;;;;;;5095703;28;20168;-72
2022/03/05 10:03:13;;;;;;;8.32;4.88;;;8.20;96.40;;;;;;5106035;28;20222;-73
2022/03/05 10:05:39;;;;;;;8.70;5.25;;;7.60;97.00;;;;;;5069159;28;20196;-73
2022/03/05 10:08:15;;;;;;;9.75;4.88;;;7.90;96.60;;;;;;5069612;28;20248;-73
2022/03/05 10:10:47;;;;;;;9.38;5.10;;;8.10;95.80;;;;;;5089025;28;20191;-73
2022/03/05 10:13:20;;;;;;;9.45;5.13;;;8.00;96.00;;;;;;5087634;28;20209;-73
2022/03/05 10:15:47;;;;;;;8.55;5.40;;;7.60;96.40;;;;;;5087891;28;20209;-73
2022/03/05 10:18:13;;;;;;;11.55;6.13;;;6.50;97.60;;;;;;5089141;28;20175;-73
2022/03/05 10:20:50;;;;;;;12.02;6.22;;;6.40;97.20;;;;;;5088190;28;20192;-73
2022/03/05 10:23:19;;;;;;;6.45;4.85;;;6.30;97.80;;;;;;5092050;28;20199;-73
2022/03/05 10:25:52;;;;;;;10.02;5.80;;;6.40;97.80;;;;;;5109223;28;20194;-73
2022/03/05 10:28:24;;;;;;;9.73;6.00;;;6.30;98.10;;;;;;5109216;28;20171;-73
2022/03/05 10:30:55;;;;;;;9.27;5.38;;;6.10;98.40;;;;;;5109065;28;20258;-72
2022/03/05 10:33:37;;;;;;;15.18;5.22;;;6.10;98.70;;;;;;5103689;28;20221;-73
2022/03/05 10:36:24;;;;;;;9.88;4.38;;;5.20;99.90;;;;;;5107815;28;20548;-73
2022/03/05 10:38:54;;;;;;;6.18;3.50;;;4.60;99.90;;;;;;5109238;28;20178;-72
2022/03/05 10:41:31;;;;;;;9.32;4.32;;;4.30;99.90;;;;;;5111493;28;20197;-72
2022/03/05 10:44:06;;;;;;;6.85;4.00;;;4.00;99.90;;;;;;5113372;28;20198;-73
2022/03/05 10:46:39;;;;;;;7.75;3.90;;;3.60;99.90;;;;;;5113195;28;20307;-72
2022/03/05 10:49:15;;;;;;;8.10;4.75;;;3.70;99.90;;;;;;5111725;28;20199;-72
2022/03/05 10:51:45;;;;;;;12.13;4.75;;;3.50;99.90;;;;;;5113038;28;20159;-72
2022/03/05 10:54:11;;;;;;;9.95;4.57;;;3.70;99.90;;;;;;5111840;28;20177;-72
2022/03/05 10:56:37;;;;;;;19.40;4.85;;;3.70;99.90;;;;;;5113016;28;20215;-72
2022/03/05 10:59:12;;;;;;;11.18;4.20;;;3.80;99.90;;;;;;5104189;28;20568;-73
2022/03/05 11:01:41;;;;;;;7.45;3.63;;;3.70;99.90;;;;;;5092485;28;20175;-73
2022/03/05 11:04:08;;;;;;;8.85;3.72;;;3.70;99.90;;;;;;5092140;28;20219;-72
2022/03/05 11:06:42;;;;;;;4.80;3.33;;;3.80;99.90;;;;;;5085292;28;20180;-74
2022/03/05 11:09:11;;;;;;;6.45;3.58;;;4.10;99.90;;;;;;5090704;28;20199;-73
2022/03/05 11:11:39;;;;;;;6.55;3.63;;;4.10;99.90;;;;;;5092214;28;20176;-73
2022/03/05 11:14:07;;;;;;;5.85;3.88;;;4.40;99.90;;;;;;5106087;28;20199;-74
2022/03/05 11:16:33;;;;;;;7.53;3.33;;;4.50;99.90;;;;;;5100092;28;20167;-74
2022/03/05 11:19:00;;;;;;;10.88;4.35;;;4.60;99.90;;;;;;5098279;28;20176;-74
2022/03/05 11:21:28;;;;;;;7.50;4.35;;;5.00;99.90;;;;;;5108786;28;20168;-74
2022/03/05 11:23:55;;;;;;;11.90;6.18;;;5.30;99.90;;;;;;5090733;28;20212;-74
2022/03/05 11:26:22;;;;;;;7.90;3.78;;;5.50;99.90;;;;;;5103939;28;20251;-74
2022/03/05 11:28:50;;;;;;;7.30;3.90;;;5.50;99.90;;;;;;5088542;28;20216;-73
2022/03/05 11:31:31;;;;;;;9.45;6.03;;;5.80;99.90;;;;;;5079383;28;20173;-73
2022/03/05 11:34:17;;;;;;;6.78;4.55;;;5.60;99.90;;;;;;5079875;28;20270;-74
2022/03/05 11:36:46;;;;;;;7.68;4.82;;;5.10;99.90;;;;;;5100720;28;20193;-73
2022/03/05 11:39:31;;;;;;;4.30;3.17;;;5.00;99.90;;;;;;5097387;28;20182;-72
2022/03/05 11:42:09;;;;;;;5.68;2.95;;;4.50;99.90;;;;;;5080043;28;20186;-73
2022/03/05 11:44:41;;;;;;;5.78;3.30;;;4.20;99.90;;;;;;5101347;28;20168;-73
2022/03/05 11:47:19;;;;;;;4.40;2.78;;;4.00;99.90;;;;;;5104362;28;20171;-73
2022/03/05 11:49:59;;;;;;;6.78;3.70;;;3.80;99.90;;;;;;5093769;28;20256;-73
2022/03/05 11:52:41;;;;;;;5.38;4.00;;;3.90;99.90;;;;;;5102315;28;20207;-73
2022/03/05 11:55:25;;;;;;;7.70;4.00;;;3.70;99.90;;;;;;5105122;28;20168;-73
2022/03/05 11:57:51;;;;;;;4.15;2.90;;;3.70;99.90;;;;;;5094657;28;20170;-73
2022/03/05 12:00:28;;;;;;;5.45;3.17;;;3.70;99.90;;;;;;5103491;28;20223;-73
2022/03/05 12:02:55;;;;;;;8.05;3.80;;;3.80;99.90;;;;;;5103139;28;20201;-73
2022/03/05 12:05:36;;;;;;;6.32;3.17;;;3.90;99.90;;;;;;5095740;28;20175;-74
2022/03/05 12:08:09;;;;;;;5.60;2.92;;;4.00;99.90;;;;;;5074056;28;20184;-74
2022/03/05 12:10:38;;;;;;;5.80;2.90;;;4.20;99.90;;;;;;5079470;28;20200;-73
2022/03/05 12:13:09;;;;;;;7.53;3.25;;;4.40;99.90;;;;;;5074007;28;20192;-74
2022/03/05 12:15:38;;;;;;;7.07;3.95;;;4.70;99.80;;;;;;5074494;28;20232;-74
2022/03/05 12:18:06;;;;;;;7.10;3.40;;;4.70;99.70;;;;;;5083938;28;20181;-74
2022/03/05 12:20:35;;;;;;;6.75;3.35;;;4.90;99.60;;;;;;5070809;28;20220;-73
2022/03/05 12:23:05;;;;;;;6.43;3.05;;;5.00;98.90;;;;;;5078905;28;20199;-73
2022/03/05 12:25:40;;;;;;;9.18;4.35;;;5.10;99.40;;;;;;5077875;28;20180;-73
2022/03/05 12:28:12;;;;;;;6.05;3.90;;;5.40;99.00;;;;;;5079866;28;20188;-73
2022/03/05 12:30:39;;;;;;;7.03;4.07;;;5.30;99.80;;;;;;5079262;28;20564;-73
2022/03/05 12:33:10;;;;;;;7.10;4.22;;;5.30;98.50;;;;;;5081126;28;20192;-74
2022/03/05 12:35:37;;;;;;;5.78;3.55;;;5.30;98.50;;;;;;5075947;28;20240;-73
2022/03/05 12:38:04;;;;;;;7.57;3.83;;;5.40;98.50;;;;;;5068865;28;20207;-73
2022/03/05 12:40:31;;;;;;;6.90;3.78;;;5.60;98.30;;;;;;5069169;28;20168;-72
2022/03/05 12:42:59;;;;;;;6.88;3.53;;;5.80;98.00;;;;;;5069454;28;20169;-71
2022/03/05 12:45:36;;;;;;;8.95;4.07;;;5.60;97.80;;;;;;5072139;28;20164;-72
2022/03/05 12:48:12;;;;;;;8.52;3.90;;;5.70;97.80;;;;;;5089342;28;20167;-72
2022/03/05 12:50:47;;;;;;;8.27;4.22;;;5.60;97.80;;;;;;5090744;28;20214;-73
2022/03/05 12:53:16;;;;;;;6.80;3.97;;;5.40;97.10;;;;;;5090428;28;20215;-72
2022/03/05 12:55:43;;;;;;;6.50;3.80;;;5.50;96.90;;;;;;5089195;28;20165;-72
2022/03/05 12:58:15;;;;;;;7.95;4.60;;;5.70;97.10;;;;;;5090531;28;20159;-72